createdAt,value
2023-01-25T00:01:37.935Z,13.55
2023-01-25T00:04:05.334Z,13.65
2023-01-25T00:06:32.622Z,13.80
2023-01-25T00:08:59.983Z,13.77
2023-01-25T00:11:27.198Z,14.55
2023-01-25T00:13:56.388Z,14.37
2023-01-25T00:16:24.696Z,12.70
2023-01-25T00:18:51.985Z,13.93
2023-01-25T00:21:23.367Z,13.05
2023-01-25T00:23:51.611Z,12.30
2023-01-25T00:26:19.471Z,12.77
2023-01-25T00:28:55.429Z,12.82
2023-01-25T00:31:57.999Z,13.88
2023-01-25T00:34:25.188Z,13.25
2023-01-25T00:37:13.081Z,14.65
2023-01-25T00:39:41.798Z,13.38
2023-01-25T00:42:13.115Z,13.43
2023-01-25T00:44:40.764Z,13.63
2023-01-25T00:47:12.118Z,12.63
2023-01-25T00:49:42.180Z,14.13
2023-01-25T00:52:10.350Z,13.73
2023-01-25T00:54:37.724Z,14.57
2023-01-25T00:57:05.736Z,14.70
2023-01-25T00:59:34.368Z,13.98
2023-01-25T01:02:02.817Z,13.30
2023-01-25T01:04:31.154Z,13.30
2023-01-25T01:06:58.629Z,13.65
2023-01-25T01:09:26.096Z,12.82
2023-01-25T01:11:54.244Z,13.98
2023-01-25T01:14:23.861Z,14.35
2023-01-25T01:16:51.322Z,13.38
2023-01-25T01:19:19.660Z,11.35
2023-01-25T01:21:47.585Z,13.10
2023-01-25T01:24:15.072Z,13.48
2023-01-25T01:26:42.457Z,12.70
2023-01-25T01:29:09.686Z,14.50
2023-01-25T01:31:37.434Z,13.48
2023-01-25T01:34:17.035Z,14.18
2023-01-25T01:36:45.159Z,14.38
2023-01-25T01:39:12.492Z,15.35
2023-01-25T01:41:40.014Z,14.88
2023-01-25T01:44:22.671Z,12.25
2023-01-25T01:46:59.655Z,13.13
2023-01-25T01:49:33.480Z,15.70
2023-01-25T01:52:18.323Z,14.07
2023-01-25T01:55:02.808Z,14.77
2023-01-25T01:57:48.531Z,15.02
2023-01-25T02:00:36.725Z,13.77
2023-01-25T02:03:04.118Z,14.32
2023-01-25T02:05:56.032Z,14.75
2023-01-25T02:08:25.425Z,13.05
2023-01-25T02:10:52.961Z,13.43
2023-01-25T02:13:21.573Z,13.82
2023-01-25T02:15:52.284Z,13.65
2023-01-25T02:18:20.454Z,14.30
2023-01-25T02:20:52.838Z,14.70
2023-01-25T02:24:08.176Z,15.02
2023-01-25T02:26:40.112Z,14.15
2023-01-25T02:29:09.820Z,14.23
2023-01-25T02:31:37.300Z,16.13
2023-01-25T02:34:04.722Z,15.23
2023-01-25T02:36:35.161Z,14.27
2023-01-25T02:39:20.253Z,13.95
2023-01-25T02:41:48.605Z,16.00
2023-01-25T02:44:26.818Z,15.00
2023-01-25T02:46:54.806Z,15.25
2023-01-25T02:49:24.007Z,14.07
2023-01-25T02:51:58.390Z,14.15
2023-01-25T02:54:27.026Z,14.27
2023-01-25T02:56:55.361Z,15.13
2023-01-25T02:59:25.033Z,16.45
2023-01-25T03:01:57.593Z,15.68
2023-01-25T03:06:53.442Z,15.18
2023-01-25T03:09:20.780Z,15.95
2023-01-25T03:11:50.204Z,15.05
2023-01-25T03:14:19.788Z,13.48
2023-01-25T03:16:47.111Z,14.88
2023-01-25T03:19:15.892Z,15.65
2023-01-25T03:21:46.683Z,14.85
2023-01-25T03:24:14.578Z,15.13
2023-01-25T03:27:05.286Z,14.30
2023-01-25T03:29:44.397Z,15.35
2023-01-25T03:32:16.487Z,14.85
2023-01-25T03:34:43.833Z,15.93
2023-01-25T03:37:11.336Z,15.07
2023-01-25T03:39:41.191Z,14.85
2023-01-25T03:44:36.793Z,14.20
2023-01-25T03:47:05.130Z,15.98
2023-01-25T03:49:33.468Z,16.50
2023-01-25T03:52:01.695Z,14.80
2023-01-25T03:54:41.245Z,15.65
2023-01-25T04:00:12.822Z,15.52
2023-01-25T04:02:45.252Z,15.10
2023-01-25T04:05:17.054Z,15.63
2023-01-25T04:07:47.442Z,15.43
2023-01-25T04:10:17.007Z,14.80
2023-01-25T04:12:46.802Z,16.33
2023-01-25T04:15:14.207Z,16.92
2023-01-25T04:17:41.760Z,18.45
2023-01-25T04:20:16.678Z,15.82
2023-01-25T04:22:44.779Z,14.45
2023-01-25T04:25:12.311Z,15.52
2023-01-25T04:27:44.983Z,17.45
2023-01-25T04:30:16.064Z,16.40
2023-01-25T04:32:45.484Z,16.52
2023-01-25T04:35:23.629Z,15.45
2023-01-25T04:37:59.692Z,15.35
2023-01-25T04:40:34.332Z,15.50
2023-01-25T04:43:02.315Z,16.48
2023-01-25T04:45:31.098Z,17.30
2023-01-25T04:48:06.168Z,16.98
2023-01-25T04:50:34.621Z,16.95
2023-01-25T04:53:02.449Z,17.88
2023-01-25T04:55:33.419Z,17.73
2023-01-25T04:58:02.978Z,17.08
2023-01-25T05:00:31.556Z,16.48
2023-01-25T05:03:00.879Z,16.85
2023-01-25T05:05:28.288Z,16.30
2023-01-25T05:07:58.699Z,17.00
2023-01-25T05:10:25.927Z,17.23
2023-01-25T05:13:25.843Z,16.80
2023-01-25T05:16:03.099Z,17.08
2023-01-25T05:18:42.560Z,16.95
2023-01-25T05:21:35.639Z,18.48
2023-01-25T05:24:03.278Z,16.35
2023-01-25T05:26:51.601Z,17.10
2023-01-25T05:29:19.000Z,18.17
2023-01-25T05:31:52.620Z,17.38
2023-01-25T05:34:20.023Z,19.88
2023-01-25T05:36:47.697Z,17.48
2023-01-25T05:39:14.989Z,18.33
2023-01-25T05:41:44.934Z,20.00
2023-01-25T05:44:12.629Z,17.67
2023-01-25T05:46:43.833Z,19.23
2023-01-25T05:49:11.733Z,18.50
2023-01-25T05:54:13.142Z,19.80
2023-01-25T05:56:43.869Z,19.00
2023-01-25T06:01:39.925Z,21.70
2023-01-25T06:04:08.144Z,19.27
2023-01-25T06:06:35.832Z,18.03
2023-01-25T06:09:04.283Z,16.90
2023-01-25T06:11:31.800Z,17.80
2023-01-25T06:13:59.159Z,18.98
2023-01-25T06:16:27.602Z,20.38
2023-01-25T06:19:27.721Z,19.02
2023-01-25T06:22:20.992Z,19.00
2023-01-25T06:24:48.187Z,18.45
2023-01-25T06:27:15.570Z,20.80
2023-01-25T06:29:43.617Z,18.27
2023-01-25T06:32:10.886Z,19.95
2023-01-25T06:34:38.144Z,23.00
2023-01-25T06:37:09.223Z,21.83
2023-01-25T06:39:36.378Z,22.27
2023-01-25T06:42:03.763Z,23.17
2023-01-25T06:44:31.623Z,21.13
2023-01-25T06:46:59.022Z,20.92
2023-01-25T06:49:26.361Z,24.05
2023-01-25T06:51:53.575Z,21.67
2023-01-25T06:54:21.056Z,20.90
2023-01-25T06:56:48.345Z,21.77
2023-01-25T06:59:16.198Z,21.85
2023-01-25T07:01:43.578Z,21.70
2023-01-25T07:04:12.196Z,23.42
2023-01-25T07:06:40.692Z,21.67
2023-01-25T07:09:12.944Z,22.73
2023-01-25T07:11:40.138Z,21.20
2023-01-25T07:14:07.828Z,22.55
2023-01-25T07:16:38.573Z,23.75
2023-01-25T07:19:09.580Z,22.35
2023-01-25T07:21:37.005Z,24.60
2023-01-25T07:24:06.068Z,23.98
2023-01-25T07:26:33.546Z,26.60
2023-01-25T07:29:00.954Z,24.38
2023-01-25T07:31:29.187Z,24.33
2023-01-25T07:33:58.378Z,21.67
2023-01-25T07:36:26.622Z,23.98
2023-01-25T07:38:56.469Z,24.02
2023-01-25T07:41:25.834Z,22.70
2023-01-25T07:43:53.243Z,24.25
2023-01-25T07:46:49.467Z,23.65
2023-01-25T07:49:16.761Z,24.45
2023-01-25T07:51:44.154Z,24.13
2023-01-25T07:54:14.685Z,23.23
2023-01-25T07:56:42.107Z,24.20
2023-01-25T07:59:10.891Z,26.27
2023-01-25T08:01:42.046Z,24.73
2023-01-25T08:04:12.029Z,24.45
2023-01-25T08:06:39.737Z,25.88
2023-01-25T08:09:17.302Z,26.33
2023-01-25T08:11:44.783Z,24.70
2023-01-25T08:14:12.615Z,25.58
2023-01-25T08:16:42.008Z,24.50
2023-01-25T08:19:11.641Z,25.73
2023-01-25T08:21:42.325Z,25.92
2023-01-25T08:24:10.346Z,25.83
2023-01-25T08:26:40.744Z,26.52
2023-01-25T08:29:07.955Z,27.33
2023-01-25T08:31:36.749Z,25.27
2023-01-25T08:36:31.873Z,26.08
2023-01-25T08:39:03.821Z,26.38
2023-01-25T08:41:34.136Z,28.50
2023-01-25T08:46:46.253Z,27.88
2023-01-25T08:49:13.891Z,29.05
2023-01-25T08:51:41.189Z,28.23
2023-01-25T08:54:12.923Z,31.15
2023-01-25T08:56:41.588Z,32.90
2023-01-25T09:01:42.360Z,27.90
2023-01-25T09:04:09.672Z,27.95
2023-01-25T09:06:37.347Z,29.58
2023-01-25T09:09:05.170Z,28.98
2023-01-25T09:11:36.965Z,27.70
2023-01-25T09:14:05.411Z,27.13
2023-01-25T09:16:32.736Z,28.20
2023-01-25T09:19:03.961Z,28.45
2023-01-25T09:21:32.243Z,27.52
2023-01-25T09:24:08.167Z,27.40
2023-01-25T09:26:42.968Z,29.80
2023-01-25T09:29:12.196Z,26.02
2023-01-25T09:31:41.516Z,28.38
2023-01-25T09:34:15.544Z,27.27
2023-01-25T09:36:43.090Z,25.67
2023-01-25T09:39:14.851Z,25.00
2023-01-25T09:42:14.645Z,22.67
2023-01-25T09:45:17.812Z,21.98
2023-01-25T09:48:14.491Z,21.65
2023-01-25T09:51:02.661Z,21.23
2023-01-25T09:53:49.246Z,22.33
2023-01-25T09:56:36.079Z,22.45
2023-01-25T09:59:17.732Z,21.30
2023-01-25T10:02:45.458Z,22.85
2023-01-25T10:05:25.896Z,21.85
2023-01-25T10:08:29.715Z,22.95
2023-01-25T10:11:22.504Z,22.40
2023-01-25T10:13:50.166Z,23.45
2023-01-25T10:16:33.266Z,27.20
2023-01-25T10:19:58.851Z,26.42
2023-01-25T10:22:35.401Z,29.52
2023-01-25T10:26:02.061Z,27.38
2023-01-25T10:28:50.239Z,27.13
2023-01-25T10:31:44.170Z,26.00
2023-01-25T10:34:55.935Z,24.77
2023-01-25T10:37:32.926Z,25.08
2023-01-25T10:40:24.363Z,25.98
2023-01-25T10:43:02.927Z,25.27
2023-01-25T10:45:30.255Z,25.77
2023-01-25T10:48:07.937Z,24.98
2023-01-25T10:50:46.898Z,24.77
2023-01-25T10:53:36.095Z,24.38
2023-01-25T10:56:09.745Z,24.40
2023-01-25T10:59:16.506Z,25.40
2023-01-25T11:01:43.946Z,27.33
2023-01-25T11:04:35.401Z,24.83
2023-01-25T11:07:05.911Z,24.45
2023-01-25T11:09:39.485Z,23.95
2023-01-25T11:12:18.360Z,25.58
2023-01-25T11:14:50.682Z,25.42
2023-01-25T11:17:31.688Z,25.30
2023-01-25T11:20:19.787Z,26.65
2023-01-25T11:22:54.535Z,25.13
2023-01-25T11:28:24.013Z,24.60
2023-01-25T11:30:53.831Z,25.88
2023-01-25T11:33:22.872Z,24.50
2023-01-25T11:36:21.048Z,25.80
2023-01-25T11:39:47.939Z,24.15
2023-01-25T11:43:05.900Z,25.33
2023-01-25T11:45:48.651Z,28.00
2023-01-25T11:48:48.767Z,26.65
2023-01-25T11:52:16.453Z,24.90
2023-01-25T11:55:14.058Z,25.70
2023-01-25T11:58:26.773Z,25.77
2023-01-25T12:01:33.817Z,25.52
2023-01-25T12:04:57.701Z,25.30
2023-01-25T12:07:42.428Z,23.13
2023-01-25T12:11:03.815Z,20.55
2023-01-25T12:14:06.972Z,22.95
2023-01-25T12:17:21.372Z,16.92
2023-01-25T12:20:31.595Z,20.27
2023-01-25T12:23:41.006Z,17.48
2023-01-25T12:27:08.620Z,14.80
2023-01-25T12:30:32.071Z,12.20
2023-01-25T12:33:27.718Z,12.63
2023-01-25T12:36:29.420Z,12.38
2023-01-25T12:39:18.026Z,11.23
2023-01-25T12:42:12.211Z,11.50
2023-01-25T12:44:57.335Z,11.38
2023-01-25T12:48:04.616Z,10.38
2023-01-25T12:50:47.055Z,11.13
2023-01-25T12:53:37.457Z,10.70
2023-01-25T12:56:27.664Z,11.40
2023-01-25T12:59:26.525Z,11.25
2023-01-25T13:02:44.639Z,11.70
2023-01-25T13:05:50.797Z,11.70
2023-01-25T13:09:01.659Z,11.35
2023-01-25T13:11:42.030Z,10.63
2023-01-25T13:14:18.632Z,11.30
2023-01-25T13:16:53.944Z,10.70
2023-01-25T13:19:32.137Z,11.35
2023-01-25T13:22:00.647Z,10.43
2023-01-25T13:24:31.274Z,11.00
2023-01-25T13:27:24.844Z,11.35
2023-01-25T13:30:16.318Z,12.45
2023-01-25T13:32:49.713Z,11.50
2023-01-25T13:35:30.553Z,9.88
2023-01-25T13:41:16.679Z,10.23
2023-01-25T13:44:21.313Z,10.23
2023-01-25T13:46:48.622Z,10.55
2023-01-25T13:49:25.049Z,11.65
2023-01-25T13:51:52.545Z,7.75
2023-01-25T13:54:19.796Z,10.02
2023-01-25T13:56:47.105Z,10.27
2023-01-25T13:59:28.353Z,9.75
2023-01-25T14:01:57.663Z,10.40
2023-01-25T14:04:25.408Z,10.38
2023-01-25T14:07:00.660Z,10.60
2023-01-25T14:09:29.498Z,11.32
2023-01-25T14:12:01.265Z,10.07
2023-01-25T14:14:35.831Z,10.13
2023-01-25T14:17:15.403Z,9.93
2023-01-25T14:19:54.524Z,10.30
2023-01-25T14:22:36.960Z,10.15
2023-01-25T14:25:18.315Z,11.18
2023-01-25T14:28:02.404Z,10.15
2023-01-25T14:30:34.408Z,10.50
2023-01-25T14:33:22.411Z,10.65
2023-01-25T14:35:59.999Z,10.25
2023-01-25T14:38:42.173Z,10.43
2023-01-25T14:42:00.202Z,12.05
2023-01-25T14:44:29.714Z,12.20
2023-01-25T14:50:38.935Z,10.35
2023-01-25T14:53:23.537Z,12.35
2023-01-25T14:55:52.152Z,11.10
2023-01-25T14:58:30.257Z,11.75
2023-01-25T15:01:03.206Z,11.55
2023-01-25T15:03:31.699Z,12.20
2023-01-25T15:06:04.636Z,12.70
2023-01-25T15:08:40.562Z,12.43
2023-01-25T15:12:00.524Z,11.70
2023-01-25T15:14:27.791Z,11.65
2023-01-25T15:16:57.091Z,11.73
2023-01-25T15:19:31.397Z,12.98
2023-01-25T15:22:01.053Z,11.80
2023-01-25T15:24:32.811Z,13.50
2023-01-25T15:27:00.066Z,13.23
2023-01-25T15:29:27.397Z,12.95
2023-01-25T15:31:56.452Z,12.73
2023-01-25T15:34:32.483Z,12.82
2023-01-25T15:36:59.997Z,12.43
2023-01-25T15:39:27.703Z,13.15
2023-01-25T15:41:55.025Z,12.75
2023-01-25T15:44:24.916Z,13.38
2023-01-25T15:46:53.503Z,13.70
2023-01-25T15:49:28.675Z,14.15
2023-01-25T15:51:56.940Z,15.70
2023-01-25T15:54:24.543Z,13.57
2023-01-25T15:56:58.142Z,14.18
2023-01-25T15:59:27.100Z,14.90
2023-01-25T16:01:54.462Z,14.07
2023-01-25T16:04:21.890Z,13.70
2023-01-25T16:06:54.790Z,14.52
2023-01-25T16:09:29.879Z,12.82
2023-01-25T16:12:01.492Z,14.82
2023-01-25T16:14:31.270Z,14.32
2023-01-25T16:17:04.043Z,15.77
2023-01-25T16:19:33.125Z,14.65
2023-01-25T16:22:00.655Z,14.57
2023-01-25T16:24:28.136Z,15.18
2023-01-25T16:26:59.527Z,14.48
2023-01-25T16:29:27.546Z,15.82
2023-01-25T16:31:56.348Z,14.38
2023-01-25T16:34:24.730Z,13.68
2023-01-25T16:36:52.862Z,14.05
2023-01-25T16:39:25.379Z,14.32
2023-01-25T16:41:53.549Z,13.48
2023-01-25T16:44:20.840Z,12.77
2023-01-25T16:46:50.182Z,13.70
2023-01-25T16:49:23.046Z,14.20
2023-01-25T16:51:50.768Z,14.57
2023-01-25T16:54:20.610Z,13.52
2023-01-25T16:56:49.428Z,13.27
2023-01-25T16:59:18.209Z,13.02
2023-01-25T17:01:46.078Z,14.00
2023-01-25T17:04:14.180Z,14.07
2023-01-25T17:06:49.965Z,13.27
2023-01-25T17:09:24.178Z,13.15
2023-01-25T17:11:53.976Z,13.75
2023-01-25T17:14:23.013Z,13.00
2023-01-25T17:16:55.004Z,13.93
2023-01-25T17:19:23.474Z,13.32
2023-01-25T17:21:50.883Z,12.43
2023-01-25T17:24:21.777Z,14.73
2023-01-25T17:26:49.506Z,13.77
2023-01-25T17:29:16.993Z,12.63
2023-01-25T17:31:44.473Z,12.68
2023-01-25T17:34:16.222Z,14.00
2023-01-25T17:36:45.549Z,13.07
2023-01-25T17:39:15.642Z,12.75
2023-01-25T17:41:45.705Z,12.95
2023-01-25T17:44:17.112Z,13.00
2023-01-25T17:46:44.374Z,13.85
2023-01-25T17:49:14.692Z,13.02
2023-01-25T17:51:42.027Z,13.15
2023-01-25T17:54:11.491Z,14.45
2023-01-25T17:56:39.845Z,12.88
2023-01-25T17:59:09.390Z,11.95
2023-01-25T18:01:37.601Z,12.10
2023-01-25T18:04:08.769Z,13.07
2023-01-25T18:06:36.713Z,15.20
2023-01-25T18:09:08.703Z,14.95
2023-01-25T18:11:39.898Z,16.08
2023-01-25T18:14:15.257Z,17.58
2023-01-25T18:16:43.145Z,16.58
2023-01-25T18:19:11.548Z,18.10
2023-01-25T18:21:41.992Z,16.77
2023-01-25T18:24:31.873Z,17.42
2023-01-25T18:27:18.294Z,18.38
2023-01-25T18:30:31.564Z,16.42
2023-01-25T18:32:59.459Z,15.88
2023-01-25T18:35:26.708Z,16.55
2023-01-25T18:37:54.109Z,15.82
2023-01-25T18:40:21.696Z,15.63
2023-01-25T18:42:49.584Z,16.70
2023-01-25T18:45:17.845Z,16.15
2023-01-25T18:47:45.187Z,16.30
2023-01-25T18:50:16.176Z,15.63
2023-01-25T18:52:44.235Z,15.48
2023-01-25T18:55:12.556Z,18.33
2023-01-25T18:57:39.914Z,17.05
2023-01-25T19:00:10.978Z,16.88
2023-01-25T19:02:38.342Z,17.63
2023-01-25T19:05:06.381Z,19.48
2023-01-25T19:07:33.620Z,19.08
2023-01-25T19:10:00.843Z,21.48
2023-01-25T19:12:28.284Z,19.60
2023-01-25T19:14:55.501Z,21.17
2023-01-25T19:17:22.794Z,19.00
2023-01-25T19:19:52.340Z,19.90
2023-01-25T19:22:19.582Z,20.48
2023-01-25T19:24:46.877Z,21.30
2023-01-25T19:27:14.080Z,21.50
2023-01-25T19:29:41.375Z,20.55
2023-01-25T19:32:10.795Z,20.23
2023-01-25T19:34:38.875Z,21.70
2023-01-25T19:37:06.610Z,20.45
2023-01-25T19:39:33.891Z,20.17
2023-01-25T19:42:01.118Z,19.98
2023-01-25T19:44:28.340Z,20.52
2023-01-25T19:46:55.622Z,23.92
2023-01-25T19:49:22.974Z,22.38
2023-01-25T19:51:53.170Z,20.63
2023-01-25T19:54:21.748Z,21.55
2023-01-25T19:56:50.276Z,21.08
2023-01-25T19:59:25.351Z,19.73
2023-01-25T20:01:53.185Z,19.58
2023-01-25T20:04:23.459Z,21.30
2023-01-25T20:06:51.428Z,18.20
2023-01-25T20:09:20.416Z,20.63
2023-01-25T20:11:47.793Z,19.02
2023-01-25T20:14:15.865Z,17.95
2023-01-25T20:16:43.498Z,18.48
2023-01-25T20:19:13.734Z,18.95
2023-01-25T20:21:41.123Z,19.20
2023-01-25T20:24:10.322Z,20.73
2023-01-25T20:26:42.781Z,19.85
2023-01-25T20:29:12.468Z,22.30
2023-01-25T20:31:47.303Z,21.60
2023-01-25T20:36:50.419Z,22.08
2023-01-25T20:39:21.907Z,23.83
2023-01-25T20:41:53.315Z,24.08
2023-01-25T20:44:21.137Z,23.77
2023-01-25T20:46:49.853Z,32.13
2023-01-25T20:51:47.017Z,25.83
2023-01-25T20:54:15.827Z,23.20
2023-01-25T20:56:48.015Z,20.27
2023-01-25T20:59:17.584Z,18.85
2023-01-25T21:01:45.032Z,19.45
2023-01-25T21:04:12.252Z,18.70
2023-01-25T21:06:39.603Z,20.88
2023-01-25T21:09:07.048Z,21.27
2023-01-25T21:11:34.680Z,23.55
2023-01-25T21:14:02.089Z,22.00
2023-01-25T21:16:30.195Z,22.83
2023-01-25T21:19:03.845Z,22.40
2023-01-25T21:21:34.699Z,24.17
2023-01-25T21:24:02.510Z,22.17
2023-01-25T21:26:36.954Z,21.27
2023-01-25T21:29:06.889Z,21.10
2023-01-25T21:31:39.408Z,21.23
2023-01-25T21:34:07.113Z,23.45
2023-01-25T21:36:34.400Z,21.05
2023-01-25T21:39:02.100Z,20.30
2023-01-25T21:41:33.548Z,22.38
2023-01-25T21:44:21.251Z,19.52
2023-01-25T21:47:16.318Z,24.45
2023-01-25T21:49:54.978Z,22.65
2023-01-25T21:52:22.271Z,40.08
2023-01-25T21:54:49.450Z,28.48
2023-01-25T21:57:16.738Z,24.15
2023-01-25T21:59:43.978Z,39.78
2023-01-25T22:02:14.866Z,28.52
2023-01-25T22:04:42.272Z,34.40
2023-01-25T22:07:10.981Z,35.47
2023-01-25T22:12:05.567Z,22.65
2023-01-25T22:14:32.754Z,25.17
2023-01-25T22:16:59.936Z,22.17
2023-01-25T22:19:27.591Z,23.52
2023-01-25T22:21:54.780Z,21.13
2023-01-25T22:24:22.741Z,20.90
2023-01-25T22:27:16.940Z,19.85
2023-01-25T22:29:44.234Z,18.17
2023-01-25T22:32:11.440Z,19.13
2023-01-25T22:34:38.671Z,20.33
2023-01-25T22:37:05.859Z,20.08
2023-01-25T22:39:33.099Z,17.98
2023-01-25T22:42:00.346Z,19.88
2023-01-25T22:44:27.615Z,18.33
2023-01-25T22:46:54.905Z,18.17
2023-01-25T22:49:22.148Z,20.90
2023-01-25T22:51:49.379Z,18.65
2023-01-25T22:54:16.632Z,19.05
2023-01-25T22:56:43.902Z,17.92
2023-01-25T22:59:18.503Z,20.55
2023-01-25T23:01:46.309Z,24.63
2023-01-25T23:04:13.625Z,20.23
2023-01-25T23:06:40.950Z,20.02
2023-01-25T23:09:08.290Z,21.40
2023-01-25T23:11:38.051Z,18.50
2023-01-25T23:14:29.160Z,21.23
2023-01-25T23:17:16.561Z,19.92
2023-01-25T23:19:43.899Z,19.10
2023-01-25T23:22:11.103Z,19.58
2023-01-25T23:24:38.365Z,19.25
2023-01-25T23:27:05.601Z,20.13
2023-01-25T23:29:33.201Z,18.20
2023-01-25T23:32:00.445Z,19.80
2023-01-25T23:34:27.850Z,19.48
2023-01-25T23:36:55.149Z,19.98
2023-01-25T23:39:23.601Z,19.95
2023-01-25T23:41:52.382Z,19.15
2023-01-25T23:46:46.735Z,19.83
2023-01-25T23:49:14.205Z,19.55
2023-01-25T23:51:41.555Z,22.33
2023-01-25T23:54:08.796Z,22.40
2023-01-25T23:56:36.015Z,22.52
2023-01-25T23:59:03.252Z,20.00
